Time;durP1;ratioP1;P1;durP2;ratioP2;P2;SDS_P1;SDS_P2;PMS_P1;PMS_P2;Temp;Humidity;BMP_temperature;BMP_pressure;BME280_temperature;BME280_humidity;BME280_pressure;Samples;Min_cycle;Max_cycle;Signal;HPM_P1;HPM_P2
2023/07/06 00:04:04;;;;;;;3.50;1.77;;;;;;;;;;13043958;22;20427;-86
2023/07/06 00:09:09;;;;;;;2.53;1.50;;;;;;;;;;13044761;22;20886;-88
2023/07/06 00:14:14;;;;;;;2.63;1.52;;;;;;;;;;13044671;22;20357;-88
2023/07/06 00:19:19;;;;;;;2.07;1.57;;;;;;;;;;13046208;22;20422;-88
2023/07/06 00:24:24;;;;;;;2.45;1.80;;;;;;;;;;13068351;22;20897;-88
2023/07/06 00:29:33;;;;;;;4.05;2.08;;;;;;;;;;13047924;22;20357;-85
2023/07/06 00:34:35;;;;;;;3.70;1.70;;;;;;;;;;13046504;22;20361;-88
2023/07/06 00:39:39;;;;;;;2.97;1.73;;;;;;;;;;13045547;22;20394;-88
2023/07/06 00:44:50;;;;;;;2.80;1.52;;;;;;;;;;13046309;22;20844;-88
2023/07/06 00:49:53;;;;;;;3.20;1.60;;;;;;;;;;13047233;22;20919;-88
2023/07/06 00:54:57;;;;;;;2.50;1.33;;;;;;;;;;13046530;22;20395;-88
2023/07/06 00:59:59;;;;;;;2.50;0.93;;;;;;;;;;13046531;22;20419;-88
2023/07/06 01:05:04;;;;;;;2.27;1.03;;;;;;;;;;13046657;22;20411;-88
2023/07/06 01:10:10;;;;;;;1.23;1.02;;;;;;;;;;13045552;22;20387;-87
2023/07/06 01:15:12;;;;;;;1.73;1.00;;;;;;;;;;13046451;22;20365;-88
2023/07/06 01:20:25;;;;;;;2.03;0.90;;;;;;;;;;13046067;22;20422;-88
2023/07/06 01:25:45;;;;;;;1.30;1.02;;;;;;;;;;13067393;22;20764;-88
2023/07/06 01:31:29;;;;;;;1.48;1.00;;;;;;;;;;13045103;22;20410;-87
2023/07/06 01:36:35;;;;;;;1.60;1.08;;;;;;;;;;13043106;22;20357;-88
2023/07/06 01:41:37;;;;;;;0.90;0.80;;;;;;;;;;13044040;22;20365;-88
2023/07/06 01:46:46;;;;;;;1.58;0.80;;;;;;;;;;13045702;22;20376;-88
2023/07/06 01:52:03;;;;;;;2.42;0.80;;;;;;;;;;13043696;22;20368;-88
2023/07/06 01:57:15;;;;;;;1.50;0.90;;;;;;;;;;13044957;22;20388;-86
2023/07/06 02:02:19;;;;;;;2.28;1.02;;;;;;;;;;13043460;22;20365;-84
2023/07/06 02:07:23;;;;;;;3.45;1.30;;;;;;;;;;13042365;22;20380;-86
2023/07/06 02:12:26;;;;;;;1.77;1.43;;;;;;;;;;13039859;22;20373;-86
2023/07/06 02:17:29;;;;;;;1.60;1.35;;;;;;;;;;13044577;22;21113;-85
2023/07/06 02:22:32;;;;;;;1.40;1.27;;;;;;;;;;13046562;22;20406;-87
2023/07/06 02:27:34;;;;;;;1.80;1.30;;;;;;;;;;13045344;22;20376;-87
2023/07/06 02:32:39;;;;;;;2.40;1.67;;;;;;;;;;13047253;22;20415;-87
2023/07/06 02:37:41;;;;;;;3.63;1.77;;;;;;;;;;13068599;22;20398;-88
2023/07/06 02:42:44;;;;;;;1.83;1.35;;;;;;;;;;13046755;22;21551;-87
2023/07/06 02:47:48;;;;;;;1.80;1.35;;;;;;;;;;13046215;22;20377;-87
2023/07/06 02:52:50;;;;;;;1.73;1.33;;;;;;;;;;13046971;22;20894;-87
2023/07/06 02:57:52;;;;;;;3.47;1.50;;;;;;;;;;13068313;22;20837;-88
2023/07/06 03:02:56;;;;;;;1.98;1.33;;;;;;;;;;13050279;22;20357;-87
2023/07/06 03:07:58;;;;;;;1.60;1.20;;;;;;;;;;13050832;22;20384;-87
2023/07/06 03:13:01;;;;;;;1.60;1.20;;;;;;;;;;13050463;22;20391;-87
2023/07/06 03:18:05;;;;;;;1.70;1.20;;;;;;;;;;13072414;22;20398;-88
2023/07/06 03:23:08;;;;;;;2.60;1.40;;;;;;;;;;13049973;22;20425;-87
2023/07/06 03:28:10;;;;;;;2.15;1.20;;;;;;;;;;13049913;22;20377;-87
2023/07/06 03:33:14;;;;;;;2.75;1.45;;;;;;;;;;13048104;22;20434;-88
2023/07/06 03:38:16;;;;;;;2.25;1.42;;;;;;;;;;13049857;22;20444;-87
2023/07/06 03:43:20;;;;;;;3.33;1.30;;;;;;;;;;13048973;22;20403;-88
2023/07/06 03:48:23;;;;;;;1.80;1.33;;;;;;;;;;13049423;22;20419;-87
2023/07/06 03:53:25;;;;;;;1.60;1.50;;;;;;;;;;13049238;22;20404;-87
2023/07/06 03:58:28;;;;;;;3.50;1.50;;;;;;;;;;13049479;22;20369;-86
2023/07/06 04:03:33;;;;;;;2.13;1.17;;;;;;;;;;13048904;22;20431;-87
2023/07/06 04:08:35;;;;;;;1.50;1.08;;;;;;;;;;13048143;22;20436;-87
2023/07/06 04:13:37;;;;;;;2.30;1.20;;;;;;;;;;13048480;22;20430;-87
2023/07/06 04:18:41;;;;;;;1.63;1.30;;;;;;;;;;13048747;22;20365;-88
2023/07/06 04:23:43;;;;;;;1.83;1.73;;;;;;;;;;13050459;22;20411;-87
2023/07/06 04:28:47;;;;;;;2.53;1.45;;;;;;;;;;13071247;22;20372;-88
2023/07/06 04:33:51;;;;;;;3.05;1.33;;;;;;;;;;13049619;22;20357;-88
2023/07/06 04:38:53;;;;;;;2.65;1.30;;;;;;;;;;13048626;22;20427;-88
2023/07/06 04:43:56;;;;;;;4.60;1.37;;;;;;;;;;13047560;22;20395;-86
2023/07/06 04:49:01;;;;;;;3.50;1.50;;;;;;;;;;13046910;22;20388;-87
2023/07/06 04:54:04;;;;;;;2.60;1.70;;;;;;;;;;13069311;22;20353;-85
2023/07/06 04:59:06;;;;;;;2.77;1.80;;;;;;;;;;13047311;22;20361;-87
2023/07/06 05:04:10;;;;;;;2.90;1.83;;;;;;;;;;13047485;22;20365;-86
2023/07/06 05:09:13;;;;;;;3.80;1.60;;;;;;;;;;13046966;22;20384;-87
2023/07/06 05:14:15;;;;;;;3.42;1.40;;;;;;;;;;13045085;22;20364;-85
2023/07/06 05:19:22;;;;;;;2.77;1.20;;;;;;;;;;13042714;22;20364;-85
2023/07/06 05:24:25;;;;;;;1.70;1.00;;;;;;;;;;13043873;22;20423;-85
2023/07/06 05:29:27;;;;;;;3.60;1.27;;;;;;;;;;13043219;22;20442;-85
2023/07/06 05:34:31;;;;;;;2.10;0.90;;;;;;;;;;13039998;22;20391;-86
2023/07/06 05:39:33;;;;;;;3.73;1.10;;;;;;;;;;13039242;22;20369;-85
2023/07/06 05:44:36;;;;;;;1.58;0.93;;;;;;;;;;13040363;22;20442;-84
2023/07/06 05:49:40;;;;;;;1.27;0.87;;;;;;;;;;13041880;22;20389;-85
2023/07/06 05:54:42;;;;;;;1.60;0.70;;;;;;;;;;13041130;22;20361;-85
2023/07/06 05:59:45;;;;;;;0.80;0.80;;;;;;;;;;13043027;22;20463;-85
2023/07/06 06:04:49;;;;;;;1.63;0.98;;;;;;;;;;13044128;22;20475;-77
2023/07/06 06:09:51;;;;;;;2.60;1.60;;;;;;;;;;13041165;22;20377;-77
2023/07/06 06:14:53;;;;;;;1.85;1.05;;;;;;;;;;13042578;22;20442;-77
2023/07/06 06:19:57;;;;;;;2.10;1.05;;;;;;;;;;13042747;22;20361;-77
2023/07/06 06:25:00;;;;;;;1.38;0.90;;;;;;;;;;13041799;22;20361;-77
2023/07/06 06:30:05;;;;;;;3.58;0.98;;;;;;;;;;13042323;22;20769;-77
2023/07/06 06:35:22;;;;;;;1.60;0.90;;;;;;;;;;13042357;22;20365;-77
2023/07/06 06:40:25;;;;;;;1.80;0.90;;;;;;;;;;13041788;22;20361;-76
2023/07/06 06:45:27;;;;;;;2.67;1.30;;;;;;;;;;13041841;22;20895;-76
2023/07/06 06:50:30;;;;;;;1.07;0.90;;;;;;;;;;13041785;22;20380;-76
2023/07/06 06:55:33;;;;;;;1.75;0.75;;;;;;;;;;13041382;22;20733;-76
2023/07/06 07:00:39;;;;;;;1.87;0.97;;;;;;;;;;13041669;22;20735;-83
2023/07/06 07:05:43;;;;;;;2.13;0.93;;;;;;;;;;13041245;22;20391;-83
2023/07/06 07:10:53;;;;;;;1.55;1.02;;;;;;;;;;13040550;22;20358;-83
2023/07/06 07:15:55;;;;;;;1.55;0.85;;;;;;;;;;13040756;22;20702;-83
2023/07/06 07:21:01;;;;;;;3.53;1.00;;;;;;;;;;13041285;22;20401;-84
2023/07/06 07:26:04;;;;;;;2.83;1.00;;;;;;;;;;13040350;22;20844;-82
2023/07/06 07:31:10;;;;;;;2.50;1.20;;;;;;;;;;13041397;22;20373;-82
2023/07/06 07:36:17;;;;;;;2.47;1.52;;;;;;;;;;13040750;22;20357;-83
2023/07/06 07:41:20;;;;;;;3.90;1.50;;;;;;;;;;13039006;22;20407;-83
2023/07/06 07:46:22;;;;;;;2.72;1.30;;;;;;;;;;13041422;22;20697;-81
2023/07/06 07:51:28;;;;;;;3.17;1.20;;;;;;;;;;13042902;22;20426;-81
2023/07/06 07:56:30;;;;;;;2.40;1.20;;;;;;;;;;13043037;22;20391;-81
2023/07/06 08:01:40;;;;;;;2.00;1.05;;;;;;;;;;13042668;22;20411;-78
2023/07/06 08:06:44;;;;;;;2.50;1.10;;;;;;;;;;13042885;22;20385;-79
2023/07/06 08:11:46;;;;;;;2.55;1.40;;;;;;;;;;13039444;22;20360;-79
2023/07/06 08:16:49;;;;;;;3.50;1.40;;;;;;;;;;13042610;22;20811;-79
2023/07/06 08:21:52;;;;;;;2.75;2.00;;;;;;;;;;13041181;22;20906;-79
2023/07/06 08:26:59;;;;;;;2.60;1.42;;;;;;;;;;13037810;22;20697;-79
2023/07/06 08:32:06;;;;;;;3.50;1.40;;;;;;;;;;13033755;22;20357;-79
2023/07/06 08:37:10;;;;;;;3.55;1.70;;;;;;;;;;13051394;22;20369;-78
2023/07/06 08:42:18;;;;;;;5.32;1.95;;;;;;;;;;13033666;22;20422;-78
2023/07/06 08:47:25;;;;;;;2.43;1.30;;;;;;;;;;13035824;22;20381;-79
2023/07/06 08:52:31;;;;;;;3.30;1.20;;;;;;;;;;13034037;22;20415;-78
2023/07/06 08:57:33;;;;;;;2.30;1.20;;;;;;;;;;13033941;22;20365;-78
2023/07/06 09:02:36;;;;;;;3.38;1.55;;;;;;;;;;13036781;22;20365;-78
2023/07/06 09:07:44;;;;;;;4.60;2.08;;;;;;;;;;13055729;22;20361;-78
2023/07/06 09:12:47;;;;;;;4.10;1.80;;;;;;;;;;13033754;22;20829;-78
2023/07/06 09:17:51;;;;;;;2.97;1.50;;;;;;;;;;13028722;22;20881;-79
2023/07/06 09:22:55;;;;;;;2.17;1.38;;;;;;;;;;13028996;22;20803;-78
2023/07/06 09:27:58;;;;;;;2.90;1.50;;;;;;;;;;13031446;22;20377;-78
2023/07/06 09:33:05;;;;;;;1.98;1.30;;;;;;;;;;13030542;22;20365;-78
2023/07/06 09:38:13;;;;;;;3.40;1.47;;;;;;;;;;13029396;22;20399;-78
2023/07/06 09:43:45;;;;;;;2.13;1.30;;;;;;;;;;13029748;22;20449;-78
2023/07/06 09:48:47;;;;;;;2.47;1.95;;;;;;;;;;13034282;22;20381;-79
2023/07/06 09:53:55;;;;;;;2.55;1.65;;;;;;;;;;13052273;22;20438;-84
2023/07/06 09:59:00;;;;;;;2.42;1.50;;;;;;;;;;13036406;22;20430;-84
2023/07/06 10:04:22;;;;;;;2.88;1.40;;;;;;;;;;13045309;22;20430;-84
2023/07/06 10:09:30;;;;;;;2.67;1.30;;;;;;;;;;13041448;22;20434;-83
2023/07/06 10:14:39;;;;;;;3.42;1.58;;;;;;;;;;13041423;22;20677;-84
2023/07/06 10:19:53;;;;;;;2.30;1.40;;;;;;;;;;13040847;22;20353;-84
2023/07/06 10:25:09;;;;;;;3.53;1.70;;;;;;;;;;13039569;22;20429;-84
2023/07/06 10:30:23;;;;;;;3.40;1.58;;;;;;;;;;13039884;22;20446;-85
2023/07/06 10:35:29;;;;;;;2.40;1.70;;;;;;;;;;13038720;22;20349;-83
2023/07/06 10:40:35;;;;;;;2.85;1.48;;;;;;;;;;13061359;22;20426;-84
2023/07/06 10:45:43;;;;;;;2.90;1.50;;;;;;;;;;13040225;22;20361;-85
2023/07/06 10:50:49;;;;;;;2.08;1.45;;;;;;;;;;13041124;22;20388;-84
2023/07/06 10:56:08;;;;;;;3.27;1.80;;;;;;;;;;13049191;22;20535;-84
2023/07/06 11:01:11;;;;;;;2.27;1.50;;;;;;;;;;13033116;22;20451;-84
2023/07/06 11:06:16;;;;;;;3.63;2.05;;;;;;;;;;13054687;22;20360;-84
2023/07/06 11:11:21;;;;;;;2.70;1.90;;;;;;;;;;13033069;22;20604;-84
2023/07/06 11:16:27;;;;;;;3.00;2.00;;;;;;;;;;13032557;22;20372;-84
2023/07/06 11:21:40;;;;;;;4.18;2.20;;;;;;;;;;13033165;22;20373;-83
2023/07/06 11:26:48;;;;;;;4.68;2.53;;;;;;;;;;13035342;22;20405;-84
2023/07/06 11:32:01;;;;;;;2.95;2.10;;;;;;;;;;13035767;22;20445;-83
2023/07/06 11:37:12;;;;;;;2.90;1.90;;;;;;;;;;13036249;22;20410;-85
2023/07/06 11:42:33;;;;;;;2.93;2.17;;;;;;;;;;13041428;22;20369;-85
2023/07/06 11:47:53;;;;;;;2.55;1.73;;;;;;;;;;13044262;22;20369;-85
2023/07/06 11:53:09;;;;;;;2.90;1.60;;;;;;;;;;13041154;22;20369;-84
2023/07/06 11:58:28;;;;;;;3.23;1.67;;;;;;;;;;13043654;22;20358;-84
2023/07/06 12:03:31;;;;;;;2.63;1.83;;;;;;;;;;13034898;22;20685;-83
2023/07/06 12:08:36;;;;;;;2.40;1.60;;;;;;;;;;13037179;22;20381;-85
2023/07/06 12:13:42;;;;;;;4.20;1.50;;;;;;;;;;13033660;22;20434;-85
2023/07/06 12:18:49;;;;;;;2.60;1.33;;;;;;;;;;13056515;22;20962;-86
2023/07/06 12:23:52;;;;;;;4.28;1.48;;;;;;;;;;13036862;22;20419;-85
2023/07/06 12:28:57;;;;;;;5.03;1.70;;;;;;;;;;13037114;22;20381;-84
2023/07/06 12:34:00;;;;;;;3.03;1.67;;;;;;;;;;13041218;22;20361;-85
2023/07/06 12:39:05;;;;;;;3.63;1.50;;;;;;;;;;13062157;22;20373;-85
2023/07/06 12:44:17;;;;;;;2.80;1.60;;;;;;;;;;13040453;22;20430;-85
2023/07/06 12:49:22;;;;;;;3.70;1.83;;;;;;;;;;13039480;22;20381;-85
2023/07/06 12:54:26;;;;;;;3.20;1.98;;;;;;;;;;13063095;22;20391;-85
2023/07/06 12:59:34;;;;;;;3.00;1.58;;;;;;;;;;13040541;22;20418;-85
2023/07/06 13:04:45;;;;;;;2.53;1.67;;;;;;;;;;13040696;22;20414;-85
2023/07/06 13:09:48;;;;;;;2.63;1.58;;;;;;;;;;13041411;22;20462;-86
2023/07/06 13:14:52;;;;;;;3.10;1.50;;;;;;;;;;13041380;22;20365;-85
2023/07/06 13:19:56;;;;;;;2.67;2.00;;;;;;;;;;13041668;22;20373;-86
2023/07/06 13:24:59;;;;;;;2.87;1.53;;;;;;;;;;13042171;22;20721;-86
2023/07/06 13:30:05;;;;;;;2.22;1.40;;;;;;;;;;13039246;22;20377;-85
2023/07/06 13:35:11;;;;;;;2.37;1.73;;;;;;;;;;13063321;22;20356;-85
2023/07/06 13:40:15;;;;;;;3.38;1.42;;;;;;;;;;13041129;22;20399;-86
2023/07/06 13:45:24;;;;;;;2.17;1.50;;;;;;;;;;13062301;22;20377;-85
2023/07/06 13:50:26;;;;;;;2.65;1.50;;;;;;;;;;13041954;22;20414;-86
2023/07/06 13:55:32;;;;;;;3.50;1.50;;;;;;;;;;13056792;22;20985;-85
2023/07/06 14:00:39;;;;;;;2.45;1.45;;;;;;;;;;13040485;22;20368;-85
2023/07/06 14:05:41;;;;;;;3.10;2.00;;;;;;;;;;13041212;22;20422;-85
2023/07/06 14:10:44;;;;;;;3.10;1.90;;;;;;;;;;13041955;22;20385;-84
2023/07/06 14:15:47;;;;;;;2.65;1.58;;;;;;;;;;13033939;22;20411;-86
2023/07/06 14:20:51;;;;;;;2.20;1.60;;;;;;;;;;13038251;22;20372;-86
2023/07/06 14:25:54;;;;;;;2.53;1.47;;;;;;;;;;13040219;22;20368;-86
2023/07/06 14:31:02;;;;;;;4.88;2.00;;;;;;;;;;13041365;22;20918;-87
2023/07/06 14:36:05;;;;;;;1.40;1.10;;;;;;;;;;13042273;22;20361;-86
2023/07/06 14:41:09;;;;;;;2.83;1.30;;;;;;;;;;13036748;22;20728;-85
2023/07/06 14:46:13;;;;;;;1.60;1.27;;;;;;;;;;13035590;22;20863;-86
2023/07/06 14:51:18;;;;;;;1.33;1.23;;;;;;;;;;13039678;22;20457;-86
2023/07/06 14:56:22;;;;;;;1.88;1.23;;;;;;;;;;13041404;22;20368;-86
2023/07/06 15:01:26;;;;;;;2.40;1.40;;;;;;;;;;13044587;22;20693;-87
2023/07/06 15:06:29;;;;;;;2.90;1.30;;;;;;;;;;13044962;22;20361;-87
2023/07/06 15:11:31;;;;;;;3.13;1.40;;;;;;;;;;13061920;22;20743;-86
2023/07/06 15:16:40;;;;;;;2.55;1.30;;;;;;;;;;13046564;22;20901;-86
2023/07/06 15:21:43;;;;;;;3.00;1.52;;;;;;;;;;13043422;22;20391;-86
2023/07/06 15:26:45;;;;;;;2.08;1.40;;;;;;;;;;13043641;22;20411;-87
2023/07/06 15:31:49;;;;;;;1.63;1.20;;;;;;;;;;13043742;22;20380;-87
2023/07/06 15:36:55;;;;;;;1.73;1.37;;;;;;;;;;13043381;22;20357;-86
2023/07/06 15:41:57;;;;;;;1.67;1.23;;;;;;;;;;13041569;22;20369;-85
2023/07/06 15:47:00;;;;;;;1.70;1.20;;;;;;;;;;13065130;22;20369;-85
2023/07/06 15:52:03;;;;;;;3.38;1.50;;;;;;;;;;13067135;22;20880;-85
2023/07/06 15:57:06;;;;;;;1.73;1.20;;;;;;;;;;13043478;22;20365;-86
2023/07/06 16:02:12;;;;;;;1.87;1.30;;;;;;;;;;13044779;22;20891;-86
2023/07/06 16:07:14;;;;;;;1.52;1.42;;;;;;;;;;13044973;22;20465;-85
2023/07/06 16:12:17;;;;;;;2.15;1.50;;;;;;;;;;13044356;22;20381;-86
2023/07/06 16:17:21;;;;;;;3.25;1.60;;;;;;;;;;13044872;22;20418;-87
2023/07/06 16:22:23;;;;;;;2.50;1.27;;;;;;;;;;13068024;22;20365;-87
2023/07/06 16:27:26;;;;;;;2.43;1.40;;;;;;;;;;13056811;22;20368;-86
2023/07/06 16:32:30;;;;;;;1.53;1.17;;;;;;;;;;13030996;22;20458;-87
2023/07/06 16:37:32;;;;;;;1.40;1.30;;;;;;;;;;13028283;22;20380;-87
2023/07/06 16:42:35;;;;;;;1.50;1.20;;;;;;;;;;13033893;22;20498;-88
2023/07/06 16:47:39;;;;;;;2.05;1.58;;;;;;;;;;13049024;22;20419;-84
2023/07/06 16:52:41;;;;;;;1.73;1.23;;;;;;;;;;13033982;22;20385;-85
2023/07/06 16:57:43;;;;;;;2.35;1.70;;;;;;;;;;13034033;22;20377;-85
2023/07/06 17:02:47;;;;;;;2.42;1.40;;;;;;;;;;13034857;22;20373;-87
2023/07/06 17:07:49;;;;;;;2.77;1.40;;;;;;;;;;13032565;22;20361;-85
2023/07/06 17:12:52;;;;;;;1.73;1.47;;;;;;;;;;13038252;22;20381;-77
2023/07/06 17:17:56;;;;;;;2.87;1.30;;;;;;;;;;13058441;22;20369;-86
2023/07/06 17:22:58;;;;;;;2.05;1.40;;;;;;;;;;13044084;22;20430;-84
2023/07/06 17:28:01;;;;;;;3.23;1.40;;;;;;;;;;13035069;22;20373;-84
2023/07/06 17:33:05;;;;;;;2.23;1.30;;;;;;;;;;13035084;22;20384;-84
2023/07/06 17:38:09;;;;;;;2.38;1.63;;;;;;;;;;13049680;22;20406;-84
2023/07/06 17:43:11;;;;;;;2.50;1.90;;;;;;;;;;13032627;22;20430;-82
2023/07/06 17:48:15;;;;;;;2.67;1.80;;;;;;;;;;13039554;22;20494;-85
2023/07/06 17:53:18;;;;;;;3.47;1.50;;;;;;;;;;13046800;22;20380;-84
2023/07/06 17:58:22;;;;;;;2.63;1.58;;;;;;;;;;13056375;22;20415;-85
2023/07/06 18:03:26;;;;;;;2.50;1.60;;;;;;;;;;13036438;22;20376;-86
2023/07/06 18:08:28;;;;;;;2.25;1.30;;;;;;;;;;13036325;22;20376;-86
2023/07/06 18:13:31;;;;;;;1.97;1.43;;;;;;;;;;13033200;22;20458;-86
2023/07/06 18:18:35;;;;;;;2.70;1.50;;;;;;;;;;13034924;22;20453;-89
2023/07/06 18:23:37;;;;;;;2.67;1.50;;;;;;;;;;13041313;22;20377;-86
2023/07/06 18:28:40;;;;;;;2.50;1.52;;;;;;;;;;13040294;22;20373;-86
2023/07/06 18:33:43;;;;;;;2.47;1.40;;;;;;;;;;13031975;22;20388;-87
2023/07/06 18:38:45;;;;;;;2.63;1.40;;;;;;;;;;13034454;22;20377;-86
2023/07/06 18:43:48;;;;;;;4.70;1.83;;;;;;;;;;13030670;22;20457;-86
2023/07/06 18:48:51;;;;;;;1.70;1.40;;;;;;;;;;13032162;22;20365;-86
2023/07/06 18:53:54;;;;;;;3.08;1.75;;;;;;;;;;13032499;22;20377;-84
2023/07/06 18:58:56;;;;;;;2.90;1.80;;;;;;;;;;13044270;22;20422;-86
2023/07/06 19:04:01;;;;;;;2.57;1.77;;;;;;;;;;13036003;22;20372;-85
2023/07/06 19:09:03;;;;;;;2.97;2.13;;;;;;;;;;13033042;22;20399;-85
2023/07/06 19:14:06;;;;;;;7.18;2.45;;;;;;;;;;13038290;22;20857;-86
2023/07/06 19:19:10;;;;;;;2.90;1.65;;;;;;;;;;13041974;22;20368;-86
2023/07/06 19:24:14;;;;;;;3.80;2.17;;;;;;;;;;13034946;22;20410;-83
2023/07/06 19:29:20;;;;;;;3.23;2.30;;;;;;;;;;13045316;22;20414;-85
2023/07/06 19:34:24;;;;;;;4.73;2.10;;;;;;;;;;13046977;22;20414;-86
2023/07/06 19:39:26;;;;;;;3.13;2.00;;;;;;;;;;13033484;22;20369;-86
2023/07/06 19:44:28;;;;;;;3.20;1.90;;;;;;;;;;13037305;22;20430;-85
2023/07/06 19:49:32;;;;;;;3.50;2.20;;;;;;;;;;13037062;22;20435;-84
2023/07/06 19:54:35;;;;;;;4.20;2.37;;;;;;;;;;13038119;22;20513;-84
2023/07/06 19:59:37;;;;;;;3.73;2.40;;;;;;;;;;13039726;22;20395;-85
2023/07/06 20:04:45;;;;;;;4.20;2.00;;;;;;;;;;13038048;22;20376;-85
2023/07/06 20:09:47;;;;;;;4.38;2.03;;;;;;;;;;13038298;22;21010;-85
2023/07/06 20:14:50;;;;;;;3.13;1.95;;;;;;;;;;13043555;22;20820;-86
2023/07/06 20:19:54;;;;;;;4.65;2.70;;;;;;;;;;13037045;22;20376;-86
2023/07/06 20:24:57;;;;;;;5.53;3.00;;;;;;;;;;13044968;22;20466;-84
2023/07/06 20:30:00;;;;;;;4.73;3.00;;;;;;;;;;13035433;22;20385;-85
2023/07/06 20:35:06;;;;;;;3.17;2.53;;;;;;;;;;13034495;22;20369;-85
2023/07/06 20:40:09;;;;;;;3.22;2.40;;;;;;;;;;13035129;22;20369;-86
2023/07/06 20:45:13;;;;;;;4.03;2.67;;;;;;;;;;13036510;22;20401;-85
2023/07/06 20:50:19;;;;;;;3.53;2.47;;;;;;;;;;13036743;22;20737;-84
2023/07/06 20:55:22;;;;;;;4.30;2.63;;;;;;;;;;13034734;22;20422;-85
2023/07/06 21:00:24;;;;;;;3.97;2.80;;;;;;;;;;13059151;22;20368;-85
2023/07/06 21:05:29;;;;;;;4.97;2.90;;;;;;;;;;13036057;22;20377;-86
2023/07/06 21:10:31;;;;;;;5.05;3.03;;;;;;;;;;13034441;22;20714;-85
2023/07/06 21:15:37;;;;;;;3.50;2.60;;;;;;;;;;13036332;22;20450;-85
2023/07/06 21:20:42;;;;;;;6.13;3.38;;;;;;;;;;13042639;22;20373;-85
2023/07/06 21:25:46;;;;;;;8.82;3.78;;;;;;;;;;13034814;22;20364;-85
2023/07/06 21:30:49;;;;;;;4.25;3.20;;;;;;;;;;13035005;22;20857;-86
2023/07/06 21:35:54;;;;;;;4.47;3.20;;;;;;;;;;13060885;22;20372;-85
2023/07/06 21:40:59;;;;;;;5.85;3.10;;;;;;;;;;13043446;22;20430;-85
2023/07/06 21:46:04;;;;;;;5.78;3.10;;;;;;;;;;13042467;22;20357;-85
2023/07/06 21:51:10;;;;;;;4.30;3.10;;;;;;;;;;13046731;22;20381;-85
2023/07/06 21:56:14;;;;;;;4.25;3.00;;;;;;;;;;13044016;22;20903;-86
2023/07/06 22:01:17;;;;;;;5.78;3.90;;;;;;;;;;13041985;22;20434;-85
2023/07/06 22:06:22;;;;;;;7.18;4.15;;;;;;;;;;13041196;22;20686;-84
2023/07/06 22:11:28;;;;;;;6.60;4.30;;;;;;;;;;13041934;22;20373;-85
2023/07/06 22:16:30;;;;;;;7.50;4.85;;;;;;;;;;13042266;22;20495;-85
2023/07/06 22:21:34;;;;;;;7.17;4.50;;;;;;;;;;13041580;22;20365;-85
2023/07/06 22:26:36;;;;;;;6.97;5.45;;;;;;;;;;13041530;22;20857;-84
2023/07/06 22:31:39;;;;;;;7.80;5.90;;;;;;;;;;13041840;22;20415;-85
2023/07/06 22:36:44;;;;;;;6.97;5.07;;;;;;;;;;13041596;22;20693;-85
2023/07/06 22:41:46;;;;;;;8.00;6.30;;;;;;;;;;13059747;22;21131;-84
2023/07/06 22:46:51;;;;;;;7.00;6.00;;;;;;;;;;13040793;22;20357;-85
2023/07/06 22:51:55;;;;;;;10.27;6.57;;;;;;;;;;13041803;22;20411;-85
2023/07/06 22:56:58;;;;;;;8.10;6.47;;;;;;;;;;13041501;22;20353;-85
2023/07/06 23:02:00;;;;;;;8.35;6.45;;;;;;;;;;13040148;22;20866;-85
2023/07/06 23:07:05;;;;;;;9.55;6.38;;;;;;;;;;13040720;22;20391;-85
2023/07/06 23:12:08;;;;;;;7.90;5.60;;;;;;;;;;13040224;22;20937;-84
2023/07/06 23:17:10;;;;;;;7.38;4.95;;;;;;;;;;13013816;22;20361;-83
2023/07/06 23:22:14;;;;;;;6.22;4.40;;;;;;;;;;13047174;22;20357;-85
2023/07/06 23:27:17;;;;;;;6.13;4.50;;;;;;;;;;13047118;22;20369;-84
2023/07/06 23:32:20;;;;;;;5.27;3.80;;;;;;;;;;13045795;22;20377;-84
2023/07/06 23:37:25;;;;;;;9.27;4.20;;;;;;;;;;13047247;22;20406;-85
2023/07/06 23:42:27;;;;;;;6.78;3.80;;;;;;;;;;12953962;22;20450;-85
2023/07/06 23:47:29;;;;;;;5.17;3.57;;;;;;;;;;12918444;23;20678;-86
2023/07/06 23:52:33;;;;;;;3.95;3.28;;;;;;;;;;12919507;22;20388;-85
2023/07/06 23:57:36;;;;;;;4.82;3.50;;;;;;;;;;12919847;22;20368;-84
